sensor_id;sensor_type;location;lat;lon;timestamp;pressure;altitude;pressure_sealevel;temperature
68510;BMP180;55512;50.102;19.958;2024-01-15T00:01:54;96842.80;;;0.00
68510;BMP180;55512;50.102;19.958;2024-01-15T00:04:37;96843.40;;;0.00
68510;BMP180;55512;50.102;19.958;2024-01-15T00:07:03;96838.20;;;0.00
68510;BMP180;55512;50.102;19.958;2024-01-15T00:09:32;96841.00;;;0.00
68510;BMP180;55512;50.102;19.958;2024-01-15T00:12:02;96829.20;;;0.00
68510;BMP180;55512;50.102;19.958;2024-01-15T00:14:31;96824.60;;;0.00
68510;BMP180;55512;50.102;19.958;2024-01-15T00:16:57;96816.80;;;0.00
68510;BMP180;55512;50.102;19.958;2024-01-15T00:19:25;96815.20;;;0.00
68510;BMP180;55512;50.102;19.958;2024-01-15T00:21:55;96804.20;;;0.00
68510;BMP180;55512;50.102;19.958;2024-01-15T00:24:30;96803.20;;;0.00
68510;BMP180;55512;50.102;19.958;2024-01-15T00:27:07;96800.00;;;0.00
68510;BMP180;55512;50.102;19.958;2024-01-15T00:29:48;96802.60;;;0.00
68510;BMP180;55512;50.102;19.958;2024-01-15T00:32:16;96801.60;;;0.00
68510;BMP180;55512;50.102;19.958;2024-01-15T00:43:12;96799.80;;;0.04
68510;BMP180;55512;50.102;19.958;2024-01-15T00:46:38;96783.40;;;0.02
68510;BMP180;55512;50.102;19.958;2024-01-15T00:49:27;96772.20;;;0.00
68510;BMP180;55512;50.102;19.958;2024-01-15T00:52:01;96770.00;;;0.00
68510;BMP180;55512;50.102;19.958;2024-01-15T00:54:27;96777.40;;;0.00
68510;BMP180;55512;50.102;19.958;2024-01-15T00:56:53;96780.00;;;0.00
68510;BMP180;55512;50.102;19.958;2024-01-15T00:59:21;96776.00;;;0.00
68510;BMP180;55512;50.102;19.958;2024-01-15T01:01:46;96773.40;;;0.00
68510;BMP180;55512;50.102;19.958;2024-01-15T01:04:12;96770.80;;;0.00
68510;BMP180;55512;50.102;19.958;2024-01-15T01:06:38;96771.20;;;0.00
68510;BMP180;55512;50.102;19.958;2024-01-15T01:09:10;96767.00;;;-0.02
68510;BMP180;55512;50.102;19.958;2024-01-15T01:11:36;96764.00;;;0.00
68510;BMP180;55512;50.102;19.958;2024-01-15T01:14:02;96763.20;;;0.00
68510;BMP180;55512;50.102;19.958;2024-01-15T01:16:28;96761.00;;;0.00
68510;BMP180;55512;50.102;19.958;2024-01-15T01:18:58;96760.20;;;0.00
68510;BMP180;55512;50.102;19.958;2024-01-15T01:21:24;96759.80;;;0.00
68510;BMP180;55512;50.102;19.958;2024-01-15T01:23:49;96757.00;;;0.00
68510;BMP180;55512;50.102;19.958;2024-01-15T01:26:18;96747.60;;;0.00
68510;BMP180;55512;50.102;19.958;2024-01-15T01:28:44;96742.20;;;0.00
68510;BMP180;55512;50.102;19.958;2024-01-15T01:31:13;96742.40;;;0.00
68510;BMP180;55512;50.102;19.958;2024-01-15T01:33:39;96732.00;;;-0.10
68510;BMP180;55512;50.102;19.958;2024-01-15T01:36:10;96730.60;;;-0.10
68510;BMP180;55512;50.102;19.958;2024-01-15T01:38:40;96723.60;;;-0.10
68510;BMP180;55512;50.102;19.958;2024-01-15T01:41:07;96723.00;;;-0.10
68510;BMP180;55512;50.102;19.958;2024-01-15T01:43:33;96716.20;;;-0.10
68510;BMP180;55512;50.102;19.958;2024-01-15T01:46:01;96712.60;;;-0.08
68510;BMP180;55512;50.102;19.958;2024-01-15T01:48:28;96711.20;;;-0.08
68510;BMP180;55512;50.102;19.958;2024-01-15T01:51:01;96712.40;;;-0.08
68510;BMP180;55512;50.102;19.958;2024-01-15T01:53:28;96706.40;;;-0.04
68510;BMP180;55512;50.102;19.958;2024-01-15T01:55:57;96702.40;;;0.00
68510;BMP180;55512;50.102;19.958;2024-01-15T01:58:23;96696.40;;;0.00
68510;BMP180;55512;50.102;19.958;2024-01-15T02:00:49;96686.40;;;0.00
68510;BMP180;55512;50.102;19.958;2024-01-15T02:03:15;96683.20;;;0.04
68510;BMP180;55512;50.102;19.958;2024-01-15T02:05:44;96674.40;;;0.10
68510;BMP180;55512;50.102;19.958;2024-01-15T02:08:10;96679.40;;;0.10
68510;BMP180;55512;50.102;19.958;2024-01-15T02:10:36;96675.80;;;0.12
68510;BMP180;55512;50.102;19.958;2024-01-15T02:13:02;96676.80;;;0.20
68510;BMP180;55512;50.102;19.958;2024-01-15T02:15:28;96667.80;;;0.22
68510;BMP180;55512;50.102;19.958;2024-01-15T02:18:11;96665.40;;;0.30
68510;BMP180;55512;50.102;19.958;2024-01-15T02:20:37;96660.60;;;0.30
68510;BMP180;55512;50.102;19.958;2024-01-15T02:23:14;96653.40;;;0.30
68510;BMP180;55512;50.102;19.958;2024-01-15T02:25:43;96658.20;;;0.34
68510;BMP180;55512;50.102;19.958;2024-01-15T02:28:17;96651.80;;;0.36
68510;BMP180;55512;50.102;19.958;2024-01-15T02:30:43;96654.40;;;0.40
68510;BMP180;55512;50.102;19.958;2024-01-15T02:33:10;96653.80;;;0.40
68510;BMP180;55512;50.102;19.958;2024-01-15T02:35:37;96658.40;;;0.40
68510;BMP180;55512;50.102;19.958;2024-01-15T02:38:04;96649.40;;;0.40
68510;BMP180;55512;50.102;19.958;2024-01-15T02:40:30;96642.20;;;0.40
68510;BMP180;55512;50.102;19.958;2024-01-15T02:42:56;96639.60;;;0.40
68510;BMP180;55512;50.102;19.958;2024-01-15T02:45:25;96636.60;;;0.40
68510;BMP180;55512;50.102;19.958;2024-01-15T02:47:51;96628.20;;;0.40
68510;BMP180;55512;50.102;19.958;2024-01-15T02:50:17;96628.80;;;0.40
68510;BMP180;55512;50.102;19.958;2024-01-15T02:52:43;96618.80;;;0.40
68510;BMP180;55512;50.102;19.958;2024-01-15T02:55:09;96619.20;;;0.40
68510;BMP180;55512;50.102;19.958;2024-01-15T02:57:35;96613.20;;;0.38
68510;BMP180;55512;50.102;19.958;2024-01-15T03:00:04;96618.20;;;0.32
68510;BMP180;55512;50.102;19.958;2024-01-15T03:03:05;96616.40;;;0.30
68510;BMP180;55512;50.102;19.958;2024-01-15T03:05:30;96616.00;;;0.30
68510;BMP180;55512;50.102;19.958;2024-01-15T03:07:59;96613.40;;;0.30
68510;BMP180;55512;50.102;19.958;2024-01-15T03:10:24;96611.00;;;0.30
68510;BMP180;55512;50.102;19.958;2024-01-15T03:12:50;96605.20;;;0.30
68510;BMP180;55512;50.102;19.958;2024-01-15T03:15:16;96598.80;;;0.30
68510;BMP180;55512;50.102;19.958;2024-01-15T03:17:48;96601.20;;;0.20
68510;BMP180;55512;50.102;19.958;2024-01-15T03:20:13;96599.40;;;0.20
68510;BMP180;55512;50.102;19.958;2024-01-15T03:22:39;96597.20;;;0.20
68510;BMP180;55512;50.102;19.958;2024-01-15T03:25:07;96597.80;;;0.16
68510;BMP180;55512;50.102;19.958;2024-01-15T03:27:36;96592.40;;;0.14
68510;BMP180;55512;50.102;19.958;2024-01-15T03:30:02;96583.80;;;0.10
68510;BMP180;55512;50.102;19.958;2024-01-15T03:32:27;96590.80;;;0.10
68510;BMP180;55512;50.102;19.958;2024-01-15T03:34:56;96587.60;;;0.08
68510;BMP180;55512;50.102;19.958;2024-01-15T03:37:22;96584.60;;;0.00
68510;BMP180;55512;50.102;19.958;2024-01-15T03:39:48;96590.00;;;0.00
68510;BMP180;55512;50.102;19.958;2024-01-15T03:42:13;96577.80;;;-0.10
68510;BMP180;55512;50.102;19.958;2024-01-15T03:44:39;96570.60;;;-0.10
68510;BMP180;55512;50.102;19.958;2024-01-15T03:47:05;96569.40;;;-0.04
68510;BMP180;55512;50.102;19.958;2024-01-15T03:49:31;96562.60;;;-0.08
68510;BMP180;55512;50.102;19.958;2024-01-15T03:51:57;96561.60;;;-0.08
68510;BMP180;55512;50.102;19.958;2024-01-15T03:54:22;96554.80;;;0.00
68510;BMP180;55512;50.102;19.958;2024-01-15T03:56:48;96553.80;;;0.00
68510;BMP180;55512;50.102;19.958;2024-01-15T03:59:14;96552.20;;;0.00
68510;BMP180;55512;50.102;19.958;2024-01-15T04:01:40;96552.80;;;0.04
68510;BMP180;55512;50.102;19.958;2024-01-15T04:04:05;96536.80;;;0.10
68510;BMP180;55512;50.102;19.958;2024-01-15T04:06:31;96537.40;;;0.10
68510;BMP180;55512;50.102;19.958;2024-01-15T04:08:58;96538.80;;;0.10
68510;BMP180;55512;50.102;19.958;2024-01-15T04:11:24;96526.00;;;0.12
68510;BMP180;55512;50.102;19.958;2024-01-15T04:13:50;96522.40;;;0.20
68510;BMP180;55512;50.102;19.958;2024-01-15T04:16:16;96527.60;;;0.20
68510;BMP180;55512;50.102;19.958;2024-01-15T04:18:44;96518.40;;;0.22
68510;BMP180;55512;50.102;19.958;2024-01-15T04:21:12;96522.80;;;0.20
68510;BMP180;55512;50.102;19.958;2024-01-15T04:23:39;96514.20;;;0.26
68510;BMP180;55512;50.102;19.958;2024-01-15T04:26:05;96512.00;;;0.30
68510;BMP180;55512;50.102;19.958;2024-01-15T04:28:33;96516.00;;;0.30
68510;BMP180;55512;50.102;19.958;2024-01-15T04:30:59;96512.20;;;0.30
68510;BMP180;55512;50.102;19.958;2024-01-15T04:33:27;96514.00;;;0.30
68510;BMP180;55512;50.102;19.958;2024-01-15T04:35:53;96502.20;;;0.30
68510;BMP180;55512;50.102;19.958;2024-01-15T04:38:25;96504.00;;;0.32
68510;BMP180;55512;50.102;19.958;2024-01-15T04:40:50;96501.40;;;0.32
68510;BMP180;55512;50.102;19.958;2024-01-15T04:43:19;96499.80;;;0.36
68510;BMP180;55512;50.102;19.958;2024-01-15T04:45:45;96498.40;;;0.40
68510;BMP180;55512;50.102;19.958;2024-01-15T04:48:20;96503.20;;;0.40
68510;BMP180;55512;50.102;19.958;2024-01-15T04:50:48;96501.80;;;0.40
68510;BMP180;55512;50.102;19.958;2024-01-15T04:53:14;96492.80;;;0.40
68510;BMP180;55512;50.102;19.958;2024-01-15T04:55:39;96494.20;;;0.50
68510;BMP180;55512;50.102;19.958;2024-01-15T04:58:05;96501.20;;;0.50
68510;BMP180;55512;50.102;19.958;2024-01-15T05:00:31;96503.00;;;0.50
68510;BMP180;55512;50.102;19.958;2024-01-15T05:02:59;96508.20;;;0.50
68510;BMP180;55512;50.102;19.958;2024-01-15T05:05:25;96510.60;;;0.50
68510;BMP180;55512;50.102;19.958;2024-01-15T05:07:51;96511.20;;;0.50
68510;BMP180;55512;50.102;19.958;2024-01-15T05:10:17;96516.80;;;0.50
68510;BMP180;55512;50.102;19.958;2024-01-15T05:12:42;96516.60;;;0.52
68510;BMP180;55512;50.102;19.958;2024-01-15T05:15:08;96519.40;;;0.56
68510;BMP180;55512;50.102;19.958;2024-01-15T05:17:35;96514.40;;;0.56
68510;BMP180;55512;50.102;19.958;2024-01-15T05:20:01;96512.80;;;0.60
68510;BMP180;55512;50.102;19.958;2024-01-15T05:22:27;96504.80;;;0.58
68510;BMP180;55512;50.102;19.958;2024-01-15T05:24:52;96506.00;;;0.60
68510;BMP180;55512;50.102;19.958;2024-01-15T05:27:18;96510.80;;;0.50
68510;BMP180;55512;50.102;19.958;2024-01-15T05:29:53;96507.40;;;0.52
68510;BMP180;55512;50.102;19.958;2024-01-15T05:32:24;96513.00;;;0.50
68510;BMP180;55512;50.102;19.958;2024-01-15T05:34:50;96516.00;;;0.50
68510;BMP180;55512;50.102;19.958;2024-01-15T05:37:15;96512.60;;;0.50
68510;BMP180;55512;50.102;19.958;2024-01-15T05:39:41;96501.60;;;0.52
68510;BMP180;55512;50.102;19.958;2024-01-15T05:42:10;96505.40;;;0.50
68510;BMP180;55512;50.102;19.958;2024-01-15T05:44:35;96490.60;;;0.50
68510;BMP180;55512;50.102;19.958;2024-01-15T05:47:01;96497.20;;;0.50
68510;BMP180;55512;50.102;19.958;2024-01-15T05:49:32;96499.40;;;0.40
68510;BMP180;55512;50.102;19.958;2024-01-15T05:51:58;96500.00;;;0.40
68510;BMP180;55512;50.102;19.958;2024-01-15T05:54:34;96499.60;;;0.40
68510;BMP180;55512;50.102;19.958;2024-01-15T05:57:23;96492.80;;;0.40
68510;BMP180;55512;50.102;19.958;2024-01-15T05:59:52;96491.60;;;0.48
68510;BMP180;55512;50.102;19.958;2024-01-15T06:02:18;96489.00;;;0.50
68510;BMP180;55512;50.102;19.958;2024-01-15T06:04:47;96499.40;;;0.50
68510;BMP180;55512;50.102;19.958;2024-01-15T06:07:23;96494.20;;;0.50
68510;BMP180;55512;50.102;19.958;2024-01-15T06:09:49;96492.00;;;0.50
68510;BMP180;55512;50.102;19.958;2024-01-15T06:12:28;96496.60;;;0.50
68510;BMP180;55512;50.102;19.958;2024-01-15T06:14:54;96495.40;;;0.40
68510;BMP180;55512;50.102;19.958;2024-01-15T06:17:22;96494.60;;;0.40
68510;BMP180;55512;50.102;19.958;2024-01-15T06:19:48;96494.80;;;0.40
68510;BMP180;55512;50.102;19.958;2024-01-15T06:22:18;96491.60;;;0.42
68510;BMP180;55512;50.102;19.958;2024-01-15T06:24:43;96480.40;;;0.44
68510;BMP180;55512;50.102;19.958;2024-01-15T06:27:09;96484.40;;;0.42
68510;BMP180;55512;50.102;19.958;2024-01-15T06:29:44;96490.60;;;0.40
68510;BMP180;55512;50.102;19.958;2024-01-15T06:32:10;96487.60;;;0.40
68510;BMP180;55512;50.102;19.958;2024-01-15T06:34:38;96481.60;;;0.40
68510;BMP180;55512;50.102;19.958;2024-01-15T06:37:07;96489.20;;;0.40
68510;BMP180;55512;50.102;19.958;2024-01-15T06:39:46;96499.20;;;0.46
68510;BMP180;55512;50.102;19.958;2024-01-15T06:42:26;96488.00;;;0.50
68510;BMP180;55512;50.102;19.958;2024-01-15T06:44:53;96492.40;;;0.60
68510;BMP180;55512;50.102;19.958;2024-01-15T06:47:28;96503.00;;;0.70
68510;BMP180;55512;50.102;19.958;2024-01-15T06:50:53;96498.20;;;0.70
68510;BMP180;55512;50.102;19.958;2024-01-15T06:53:19;96503.00;;;0.80
68510;BMP180;55512;50.102;19.958;2024-01-15T06:55:47;96496.20;;;0.80
68510;BMP180;55512;50.102;19.958;2024-01-15T06:58:24;96495.20;;;0.80
68510;BMP180;55512;50.102;19.958;2024-01-15T07:00:52;96499.60;;;0.80
68510;BMP180;55512;50.102;19.958;2024-01-15T07:03:18;96501.20;;;0.80
68510;BMP180;55512;50.102;19.958;2024-01-15T07:05:49;96504.00;;;0.80
68510;BMP180;55512;50.102;19.958;2024-01-15T07:08:15;96501.00;;;0.80
68510;BMP180;55512;50.102;19.958;2024-01-15T07:10:41;96510.20;;;0.82
68510;BMP180;55512;50.102;19.958;2024-01-15T07:13:09;96513.60;;;0.88
68510;BMP180;55512;50.102;19.958;2024-01-15T07:15:38;96509.60;;;0.90
68510;BMP180;55512;50.102;19.958;2024-01-15T07:18:04;96518.40;;;0.90
68510;BMP180;55512;50.102;19.958;2024-01-15T07:20:33;96519.80;;;0.90
68510;BMP180;55512;50.102;19.958;2024-01-15T07:22:59;96519.60;;;0.90
68510;BMP180;55512;50.102;19.958;2024-01-15T07:25:25;96521.40;;;0.90
68510;BMP180;55512;50.102;19.958;2024-01-15T07:27:54;96520.40;;;0.92
68510;BMP180;55512;50.102;19.958;2024-01-15T07:30:20;96517.60;;;0.96
68510;BMP180;55512;50.102;19.958;2024-01-15T07:32:47;96533.40;;;0.98
68510;BMP180;55512;50.102;19.958;2024-01-15T07:35:15;96534.80;;;1.00
68510;BMP180;55512;50.102;19.958;2024-01-15T07:37:41;96528.40;;;1.00
68510;BMP180;55512;50.102;19.958;2024-01-15T07:40:07;96530.00;;;1.00
68510;BMP180;55512;50.102;19.958;2024-01-15T07:42:43;96537.80;;;1.00
68510;BMP180;55512;50.102;19.958;2024-01-15T07:45:10;96536.40;;;1.00
68510;BMP180;55512;50.102;19.958;2024-01-15T07:47:36;96548.00;;;1.00
68510;BMP180;55512;50.102;19.958;2024-01-15T07:50:02;96548.60;;;1.02
68510;BMP180;55512;50.102;19.958;2024-01-15T07:52:33;96544.00;;;1.04
68510;BMP180;55512;50.102;19.958;2024-01-15T07:54:59;96549.20;;;1.10
68510;BMP180;55512;50.102;19.958;2024-01-15T07:57:26;96545.60;;;1.12
68510;BMP180;55512;50.102;19.958;2024-01-15T07:59:52;96544.00;;;1.20
68510;BMP180;55512;50.102;19.958;2024-01-15T08:02:18;96542.40;;;1.20
68510;BMP180;55512;50.102;19.958;2024-01-15T08:04:43;96549.80;;;1.20
68510;BMP180;55512;50.102;19.958;2024-01-15T08:07:11;96554.40;;;1.30
68510;BMP180;55512;50.102;19.958;2024-01-15T08:09:38;96553.00;;;1.40
68510;BMP180;55512;50.102;19.958;2024-01-15T08:12:10;96557.20;;;1.40
68510;BMP180;55512;50.102;19.958;2024-01-15T08:14:43;96552.60;;;1.42
68510;BMP180;55512;50.102;19.958;2024-01-15T08:17:23;96552.80;;;1.50
68510;BMP180;55512;50.102;19.958;2024-01-15T08:19:53;96556.40;;;1.40
68510;BMP180;55512;50.102;19.958;2024-01-15T08:22:41;96560.60;;;1.40
68510;BMP180;55512;50.102;19.958;2024-01-15T08:25:49;96557.80;;;1.40
68510;BMP180;55512;50.102;19.958;2024-01-15T08:28:27;96559.60;;;1.40
68510;BMP180;55512;50.102;19.958;2024-01-15T08:30:59;96551.80;;;1.40
68510;BMP180;55512;50.102;19.958;2024-01-15T08:33:32;96559.00;;;1.40
68510;BMP180;55512;50.102;19.958;2024-01-15T08:36:06;96556.60;;;1.40
68510;BMP180;55512;50.102;19.958;2024-01-15T08:38:55;96554.80;;;1.48
68510;BMP180;55512;50.102;19.958;2024-01-15T08:41:26;96549.00;;;1.60
68510;BMP180;55512;50.102;19.958;2024-01-15T08:43:52;96556.80;;;1.60
68510;BMP180;55512;50.102;19.958;2024-01-15T08:46:18;96570.60;;;1.70
68510;BMP180;55512;50.102;19.958;2024-01-15T08:48:44;96567.00;;;1.80
68510;BMP180;55512;50.102;19.958;2024-01-15T08:51:11;96568.80;;;1.80
68510;BMP180;55512;50.102;19.958;2024-01-15T08:53:37;96579.60;;;1.80
68510;BMP180;55512;50.102;19.958;2024-01-15T08:56:03;96572.80;;;1.80
68510;BMP180;55512;50.102;19.958;2024-01-15T08:58:29;96575.00;;;1.80
68510;BMP180;55512;50.102;19.958;2024-01-15T09:00:55;96569.00;;;1.70
68510;BMP180;55512;50.102;19.958;2024-01-15T09:03:24;96571.60;;;1.60
68510;BMP180;55512;50.102;19.958;2024-01-15T09:05:50;96581.00;;;1.56
68510;BMP180;55512;50.102;19.958;2024-01-15T09:11:07;96580.80;;;1.50
68510;BMP180;55512;50.102;19.958;2024-01-15T09:13:35;96595.20;;;1.60
68510;BMP180;55512;50.102;19.958;2024-01-15T09:16:01;96594.60;;;1.60
68510;BMP180;55512;50.102;19.958;2024-01-15T09:18:30;96589.20;;;1.60
68510;BMP180;55512;50.102;19.958;2024-01-15T09:20:57;96601.80;;;1.60
68510;BMP180;55512;50.102;19.958;2024-01-15T09:23:25;96596.00;;;1.60
68510;BMP180;55512;50.102;19.958;2024-01-15T09:25:51;96608.60;;;1.60
68510;BMP180;55512;50.102;19.958;2024-01-15T09:28:18;96596.00;;;1.60
68510;BMP180;55512;50.102;19.958;2024-01-15T09:30:44;96599.00;;;1.60
68510;BMP180;55512;50.102;19.958;2024-01-15T09:33:10;96590.20;;;1.50
68510;BMP180;55512;50.102;19.958;2024-01-15T09:35:36;96586.20;;;1.50
68510;BMP180;55512;50.102;19.958;2024-01-15T09:38:05;96608.60;;;1.50
68510;BMP180;55512;50.102;19.958;2024-01-15T09:40:31;96600.40;;;1.40
68510;BMP180;55512;50.102;19.958;2024-01-15T09:43:08;96603.20;;;1.42
68510;BMP180;55512;50.102;19.958;2024-01-15T09:45:55;96599.80;;;1.40
68510;BMP180;55512;50.102;19.958;2024-01-15T09:48:20;96592.60;;;1.40
68510;BMP180;55512;50.102;19.958;2024-01-15T09:50:46;96601.00;;;1.40
68510;BMP180;55512;50.102;19.958;2024-01-15T09:53:17;96589.80;;;1.38
68510;BMP180;55512;50.102;19.958;2024-01-15T09:55:44;96581.80;;;1.36
68510;BMP180;55512;50.102;19.958;2024-01-15T09:58:12;96593.40;;;1.38
68510;BMP180;55512;50.102;19.958;2024-01-15T10:00:39;96584.00;;;1.30
68510;BMP180;55512;50.102;19.958;2024-01-15T10:03:08;96579.40;;;1.40
68510;BMP180;55512;50.102;19.958;2024-01-15T10:05:35;96579.80;;;1.50
68510;BMP180;55512;50.102;19.958;2024-01-15T10:08:03;96591.00;;;1.72
68510;BMP180;55512;50.102;19.958;2024-01-15T10:10:30;96590.00;;;1.70
68510;BMP180;55512;50.102;19.958;2024-01-15T10:13:00;96587.80;;;1.60
68510;BMP180;55512;50.102;19.958;2024-01-15T10:15:29;96591.00;;;1.40
68510;BMP180;55512;50.102;19.958;2024-01-15T10:17:54;96596.40;;;1.40
68510;BMP180;55512;50.102;19.958;2024-01-15T10:20:28;96609.40;;;1.58
68510;BMP180;55512;50.102;19.958;2024-01-15T10:22:59;96607.20;;;1.50
68510;BMP180;55512;50.102;19.958;2024-01-15T10:25:32;96589.40;;;1.40
68510;BMP180;55512;50.102;19.958;2024-01-15T10:28:10;96589.60;;;1.30
68510;BMP180;55512;50.102;19.958;2024-01-15T10:30:36;96589.20;;;1.18
68510;BMP180;55512;50.102;19.958;2024-01-15T10:36:11;96585.00;;;1.10
68510;BMP180;55512;50.102;19.958;2024-01-15T10:38:42;96594.40;;;1.20
68510;BMP180;55512;50.102;19.958;2024-01-15T10:41:19;96583.20;;;1.30
68510;BMP180;55512;50.102;19.958;2024-01-15T10:43:45;96577.80;;;1.30
68510;BMP180;55512;50.102;19.958;2024-01-15T10:46:11;96576.80;;;1.30
68510;BMP180;55512;50.102;19.958;2024-01-15T10:48:38;96578.00;;;1.38
68510;BMP180;55512;50.102;19.958;2024-01-15T10:51:05;96579.40;;;1.40
68510;BMP180;55512;50.102;19.958;2024-01-15T10:53:46;96572.40;;;1.52
68510;BMP180;55512;50.102;19.958;2024-01-15T10:56:21;96578.20;;;1.62
68510;BMP180;55512;50.102;19.958;2024-01-15T10:59:06;96576.80;;;1.70
68510;BMP180;55512;50.102;19.958;2024-01-15T11:01:39;96565.80;;;1.60
68510;BMP180;55512;50.102;19.958;2024-01-15T11:04:21;96564.20;;;1.60
68510;BMP180;55512;50.102;19.958;2024-01-15T11:07:02;96566.40;;;1.60
68510;BMP180;55512;50.102;19.958;2024-01-15T11:09:29;96564.20;;;1.60
68510;BMP180;55512;50.102;19.958;2024-01-15T11:12:13;96568.00;;;1.60
68510;BMP180;55512;50.102;19.958;2024-01-15T11:14:48;96564.60;;;1.80
68510;BMP180;55512;50.102;19.958;2024-01-15T11:17:16;96568.20;;;2.00
68510;BMP180;55512;50.102;19.958;2024-01-15T11:19:51;96569.40;;;2.10
68510;BMP180;55512;50.102;19.958;2024-01-15T11:25:15;96570.80;;;2.30
68510;BMP180;55512;50.102;19.958;2024-01-15T11:27:59;96573.80;;;2.30
68510;BMP180;55512;50.102;19.958;2024-01-15T11:30:26;96569.20;;;2.32
68510;BMP180;55512;50.102;19.958;2024-01-15T11:32:51;96573.20;;;2.30
68510;BMP180;55512;50.102;19.958;2024-01-15T11:35:17;96569.20;;;2.40
68510;BMP180;55512;50.102;19.958;2024-01-15T11:37:57;96574.60;;;2.40
68510;BMP180;55512;50.102;19.958;2024-01-15T11:40:44;96567.60;;;2.40
68510;BMP180;55512;50.102;19.958;2024-01-15T11:43:12;96567.20;;;2.40
68510;BMP180;55512;50.102;19.958;2024-01-15T11:45:39;96564.40;;;2.36
68510;BMP180;55512;50.102;19.958;2024-01-15T11:48:17;96551.60;;;2.30
68510;BMP180;55512;50.102;19.958;2024-01-15T11:50:46;96551.40;;;2.30
68510;BMP180;55512;50.102;19.958;2024-01-15T11:53:36;96560.60;;;2.16
68510;BMP180;55512;50.102;19.958;2024-01-15T11:56:07;96559.40;;;2.00
68510;BMP180;55512;50.102;19.958;2024-01-15T11:58:40;96557.00;;;2.00
68510;BMP180;55512;50.102;19.958;2024-01-15T12:01:06;96564.60;;;2.00
68510;BMP180;55512;50.102;19.958;2024-01-15T12:03:41;96562.00;;;1.96
68510;BMP180;55512;50.102;19.958;2024-01-15T12:06:10;96568.00;;;1.90
68510;BMP180;55512;50.102;19.958;2024-01-15T12:09:41;96563.20;;;1.90
68510;BMP180;55512;50.102;19.958;2024-01-15T12:12:59;96554.40;;;1.80
68510;BMP180;55512;50.102;19.958;2024-01-15T12:15:37;96555.20;;;1.70
68510;BMP180;55512;50.102;19.958;2024-01-15T12:18:08;96565.80;;;1.80
68510;BMP180;55512;50.102;19.958;2024-01-15T12:20:43;96556.40;;;1.80
68510;BMP180;55512;50.102;19.958;2024-01-15T12:23:18;96569.40;;;1.80
68510;BMP180;55512;50.102;19.958;2024-01-15T12:25:44;96571.00;;;1.80
68510;BMP180;55512;50.102;19.958;2024-01-15T12:28:18;96559.60;;;1.70
68510;BMP180;55512;50.102;19.958;2024-01-15T12:30:47;96567.60;;;1.70
68510;BMP180;55512;50.102;19.958;2024-01-15T12:33:18;96568.20;;;1.60
68510;BMP180;55512;50.102;19.958;2024-01-15T12:35:53;96579.40;;;1.70
68510;BMP180;55512;50.102;19.958;2024-01-15T12:38:19;96557.60;;;1.60
68510;BMP180;55512;50.102;19.958;2024-01-15T12:40:51;96556.40;;;1.54
68510;BMP180;55512;50.102;19.958;2024-01-15T12:43:22;96560.80;;;1.60
68510;BMP180;55512;50.102;19.958;2024-01-15T12:45:50;96574.80;;;1.60
68510;BMP180;55512;50.102;19.958;2024-01-15T12:48:16;96552.00;;;1.60
68510;BMP180;55512;50.102;19.958;2024-01-15T12:50:51;96566.00;;;1.70
68510;BMP180;55512;50.102;19.958;2024-01-15T12:53:38;96558.80;;;1.72
68510;BMP180;55512;50.102;19.958;2024-01-15T12:56:17;96562.60;;;1.80
68510;BMP180;55512;50.102;19.958;2024-01-15T12:59:01;96585.20;;;1.78
68510;BMP180;55512;50.102;19.958;2024-01-15T13:01:27;96567.60;;;1.70
68510;BMP180;55512;50.102;19.958;2024-01-15T13:04:11;96566.60;;;1.70
68510;BMP180;55512;50.102;19.958;2024-01-15T13:06:37;96561.40;;;1.62
68510;BMP180;55512;50.102;19.958;2024-01-15T13:09:03;96565.80;;;1.56
68510;BMP180;55512;50.102;19.958;2024-01-15T13:11:33;96589.40;;;1.50
68510;BMP180;55512;50.102;19.958;2024-01-15T13:13:59;96553.40;;;1.40
68510;BMP180;55512;50.102;19.958;2024-01-15T13:16:46;96555.60;;;1.32
68510;BMP180;55512;50.102;19.958;2024-01-15T13:19:20;96578.80;;;1.30
68510;BMP180;55512;50.102;19.958;2024-01-15T13:21:55;96562.40;;;1.20
68510;BMP180;55512;50.102;19.958;2024-01-15T13:24:30;96555.40;;;1.14
68510;BMP180;55512;50.102;19.958;2024-01-15T13:26:58;96555.80;;;1.18
68510;BMP180;55512;50.102;19.958;2024-01-15T13:29:28;96556.20;;;1.20
68510;BMP180;55512;50.102;19.958;2024-01-15T13:31:54;96547.40;;;1.16
68510;BMP180;55512;50.102;19.958;2024-01-15T13:34:25;96539.00;;;1.10
68510;BMP180;55512;50.102;19.958;2024-01-15T13:36:50;96542.80;;;1.10
68510;BMP180;55512;50.102;19.958;2024-01-15T13:39:21;96543.20;;;1.10
68510;BMP180;55512;50.102;19.958;2024-01-15T13:41:47;96552.60;;;1.06
68510;BMP180;55512;50.102;19.958;2024-01-15T13:44:13;96546.60;;;1.00
68510;BMP180;55512;50.102;19.958;2024-01-15T13:46:39;96542.00;;;1.00
68510;BMP180;55512;50.102;19.958;2024-01-15T13:49:04;96539.20;;;0.90
68510;BMP180;55512;50.102;19.958;2024-01-15T13:51:32;96546.40;;;0.90
68510;BMP180;55512;50.102;19.958;2024-01-15T13:53:58;96536.60;;;0.80
68510;BMP180;55512;50.102;19.958;2024-01-15T13:56:24;96537.20;;;0.80
68510;BMP180;55512;50.102;19.958;2024-01-15T13:58:52;96546.00;;;0.80
68510;BMP180;55512;50.102;19.958;2024-01-15T14:01:54;96543.20;;;0.70
68510;BMP180;55512;50.102;19.958;2024-01-15T14:04:22;96536.40;;;0.70
68510;BMP180;55512;50.102;19.958;2024-01-15T14:07:00;96538.40;;;0.70
68510;BMP180;55512;50.102;19.958;2024-01-15T14:09:26;96537.00;;;0.64
68510;BMP180;55512;50.102;19.958;2024-01-15T14:11:52;96533.40;;;0.60
68510;BMP180;55512;50.102;19.958;2024-01-15T14:14:36;96535.00;;;0.54
68510;BMP180;55512;50.102;19.958;2024-01-15T14:17:14;96536.00;;;0.50
68510;BMP180;55512;50.102;19.958;2024-01-15T14:19:44;96538.20;;;0.42
68510;BMP180;55512;50.102;19.958;2024-01-15T14:22:10;96546.00;;;0.40
68510;BMP180;55512;50.102;19.958;2024-01-15T14:24:36;96541.00;;;0.40
68510;BMP180;55512;50.102;19.958;2024-01-15T14:27:11;96536.60;;;0.30
68510;BMP180;55512;50.102;19.958;2024-01-15T14:30:02;96534.80;;;0.30
68510;BMP180;55512;50.102;19.958;2024-01-15T14:36:37;96536.40;;;0.14
68510;BMP180;55512;50.102;19.958;2024-01-15T14:39:41;96522.60;;;0.10
68510;BMP180;55512;50.102;19.958;2024-01-15T14:42:20;96532.40;;;0.10
68510;BMP180;55512;50.102;19.958;2024-01-15T14:48:36;96536.40;;;0.00
68510;BMP180;55512;50.102;19.958;2024-01-15T14:51:08;96534.20;;;0.00
68510;BMP180;55512;50.102;19.958;2024-01-15T14:53:48;96554.40;;;-0.08